Flight Track Log - Related Links

Times and Time Zones

All times are in EDT time to prevent confusion due to time zone crossing. See the BJS444 flight status page for this flight to view local times or setup timezone preferences in your user account.

Time Position Orientation Groundspeed Altitude Reporting Facility
EDT Latitude Longitude Course Direction KTS MPH feet Rate Location/Type
Thu 08:31:43 AM 41.4000 -73.1167 159° South 207 238 4,700  Level New York TRACON
Thu 08:32:43 AM 41.3333 -73.0833 159° South 258 297 7,100 1,950 Climbing New York TRACON
Thu 08:33:43 AM 41.2667 -73.0167 143° Southeast 285 328 8,600 950 Climbing New York TRACON
Thu 08:34:43 AM 41.2000 -72.9667 151° Southeast 286 329 9,000 520 Climbing New York TRACON
Thu 08:35:50 AM 41.1303 -72.8975 143° Southeast 297 342 9,700 1,748 Climbing Boston Center
Thu 08:36:50 AM 41.0514 -72.8281 146° Southeast 313 360 12,700 3,273 Climbing Boston Center
Thu 08:37:51 AM 40.9744 -72.7617 147° Southeast 351 404 16,300 2,951 Climbing Boston Center
Thu 08:38:52 AM 40.8744 -72.7914 193° South 347 399 18,700 2,700 Climbing Boston Center
Thu 08:39:51 AM 40.7886 -72.8814 218° Southwest 339 390 21,700 3,282 Climbing Boston Center
Thu 08:40:49 AM 40.6922 -72.9767 217° Southwest 380 437 25,100 2,949 Climbing Boston Center
Thu 08:41:49 AM 40.6022 -73.0661 217° Southwest 401 461 27,500 1,950 Climbing Boston Center
Thu 08:42:49 AM 40.5081 -73.1525 215° Southwest 412 474 29,000 1,388 Climbing Boston Center
Thu 08:43:50 AM 40.4114 -73.2522 218° Southwest 425 489 30,300 1,579 Climbing Boston Center
Thu 08:45:59 AM 40.2069 -73.4564 217° Southwest 442 509 34,000 1,905 Climbing Washington Center
Thu 08:46:59 AM 40.0983 -73.5575 215° Southwest 442 509 36,300 1,650 Climbing Washington Center
Thu 08:47:59 AM 40.0039 -73.6494 217° Southwest 442 509 37,300 900 Climbing Washington Center
Thu 08:48:59 AM 39.9178 -73.7331 217° Southwest 442 509 38,100 900 Climbing Washington Center
Thu 08:49:59 AM 39.8172 -73.8275 216° Southwest 447 514 39,100 1,000 Climbing Washington Center
Thu 08:50:59 AM 39.7164 -73.9217 216° Southwest 447 514 40,100 1,000 Climbing Washington Center
Thu 08:51:59 AM 39.6219 -74.0183 218° Southwest 447 514 41,100 1,000 Climbing Washington Center
Thu 08:52:59 AM 39.5250 -74.1092 216° Southwest 442 509 42,100 900 Climbing Washington Center
Thu 08:53:59 AM 39.4322 -74.1944 215° Southwest 437 503 42,900 450 Climbing Washington Center
Thu 08:54:59 AM 39.3375 -74.2819 216° Southwest 429 494 43,000 50 Climbing Washington Center
Thu 08:55:59 AM 39.2447 -74.3747 218° Southwest 429 494 43,000  Level Washington Center
Thu 08:56:59 AM 39.1517 -74.4594 215° Southwest 429 494 43,000  Level Washington Center
Thu 08:57:59 AM 39.0608 -74.5464 217° Southwest 423 487 43,000  Level Washington Center
Thu 08:58:59 AM 38.9678 -74.6331 216° Southwest 423 487 43,000  Level Washington Center
Thu 08:59:59 AM 38.8767 -74.7197 217° Southwest 423 487 43,000  Level Washington Center
Thu 09:00:59 AM 38.7856 -74.8033 216° Southwest 423 487 43,000  Level Washington Center
Thu 09:01:59 AM 38.6881 -74.8894 215° Southwest 423 487 43,000  Level Washington Center
Thu 09:02:59 AM 38.5906 -74.9833 217° Southwest 429 494 43,000  Level Washington Center
Thu 09:03:59 AM 38.4950 -75.0639 213° Southwest 434 499 43,000  Level Washington Center
Thu 09:04:59 AM 38.3933 -75.1467 213° Southwest 434 499 43,000  Level Washington Center
Thu 09:05:59 AM 38.2831 -75.2294 211° Southwest 429 494 43,000  Level Washington Center
Thu 09:06:59 AM 38.1789 -75.3039 209° Southwest 424 488 43,000  Level Washington Center
Thu 09:07:59 AM 38.0769 -75.3756 209° Southwest 424 488 43,000  Level Washington Center
Thu 09:08:59 AM 37.9728 -75.4522 210° Southwest 429 494 43,000 150 Level Washington Center
Thu 09:09:59 AM 37.8686 -75.5208 207° Southwest 429 494 43,300 450 Climbing Washington Center
Thu 09:10:59 AM 37.7686 -75.5944 210° Southwest 423 487 43,900 650 Climbing Washington Center
Thu 09:11:59 AM 37.6664 -75.6653 209° Southwest 423 487 44,600 550 Climbing Washington Center
Thu 09:12:59 AM 37.5725 -75.7464 214° Southwest 423 487 45,000 200 Climbing Washington Center
Thu 09:13:59 AM 37.4783 -75.8300 215° Southwest 418 481 45,000  Level Washington Center
Thu 09:14:59 AM 37.3803 -75.9108 213° Southwest 418 481 45,000  Level Washington Center
Thu 09:15:59 AM 37.2797 -75.9964 214° Southwest 423 487 45,000  Level Washington Center
Thu 09:16:59 AM 37.1814 -76.0819 215° Southwest 428 493 45,000  Level Washington Center
Thu 09:17:59 AM 37.0747 -76.1647 212° Southwest 435 501 45,000  Level Washington Center
Thu 09:18:59 AM 36.9700 -76.2522 214° Southwest 449 517 45,000  Level Washington Center
Thu 09:19:59 AM 36.8672 -76.3369 213° Southwest 454 522 45,000  Level Washington Center
Thu 09:20:59 AM 36.7644 -76.4217 213° Southwest 454 522 45,000  Level Washington Center
Thu 09:21:59 AM 36.6636 -76.5111 215° Southwest 454 522 45,000  Level Washington Center
Thu 09:22:59 AM 36.5714 -76.5875 214° Southwest 449 517 45,000  Level Washington Center
Thu 09:23:59 AM 36.4706 -76.6692 213° Southwest 449 517 45,000  Level Washington Center
Thu 09:24:59 AM 36.3675 -76.7528 213° Southwest 444 511 45,000  Level Washington Center
Thu 09:25:59 AM 36.2686 -76.8336 213° Southwest 444 511 45,000  Level Washington Center
Thu 09:26:59 AM 36.1675 -76.9169 214° Southwest 444 511 45,000  Level Washington Center
Thu 09:27:59 AM 36.0706 -76.9925 212° Southwest 444 511 45,000  Level Washington Center
Thu 09:28:59 AM 35.9717 -77.0728 213° Southwest 439 505 45,000  Level Washington Center
Thu 09:29:59 AM 35.8661 -77.1606 214° Southwest 439 505 45,000  Level Washington Center
Thu 09:30:59 AM 35.7669 -77.2406 213° Southwest 434 499 45,000  Level Washington Center
Thu 09:31:59 AM 35.6658 -77.3228 213° Southwest 434 499 45,000  Level Washington Center
Thu 09:32:59 AM 35.5686 -77.4000 213° Southwest 434 499 45,000  Level Washington Center
Thu 09:33:59 AM 35.4694 -77.4794 213° Southwest 434 499 45,000  Level Washington Center
Thu 09:34:59 AM 35.3678 -77.5608 213° Southwest 434 499 45,000  Level Washington Center
Thu 09:35:59 AM 35.2767 -77.6556 220° Southwest 434 499 45,000  Level Washington Center
Thu 09:36:59 AM 35.1958 -77.7372 220° Southwest 434 499 45,000  Level Washington Center
Thu 09:37:59 AM 35.1064 -77.8314 221° Southwest 429 494 45,000  Level Washington Center
Thu 09:38:59 AM 35.0128 -77.9250 219° Southwest 429 494 45,000  Level Washington Center
Thu 09:39:59 AM 34.9233 -78.0189 221° Southwest 434 499 45,000  Level Washington Center
Thu 09:41:55 AM 34.7425 -78.2136 222° Southwest 438 504 45,000  Level Jacksonville Center
Thu 09:42:55 AM 34.6522 -78.3069 220° Southwest 438 504 45,000  Level Jacksonville Center
Thu 09:43:55 AM 34.5594 -78.3975 219° Southwest 438 504 45,000  Level Jacksonville Center
Thu 09:44:55 AM 34.4689 -78.4903 220° Southwest 438 504 45,000  Level Jacksonville Center
Thu 09:45:55 AM 34.3781 -78.5806 219° Southwest 438 504 45,000  Level Jacksonville Center
Thu 09:46:55 AM 34.2853 -78.6731 219° Southwest 438 504 45,000  Level Jacksonville Center
Thu 09:47:55 AM 34.1944 -78.7653 220° Southwest 438 504 45,000  Level Jacksonville Center
Thu 09:48:55 AM 34.1036 -78.8550 219° Southwest 438 504 45,000  Level Jacksonville Center
Thu 09:49:55 AM 34.0125 -78.9469 220° Southwest 438 504 45,000  Level Jacksonville Center
Thu 09:50:55 AM 33.9194 -79.0386 219° Southwest 438 504 45,000  Level Jacksonville Center
Thu 09:51:55 AM 33.8261 -79.1253 218° Southwest 438 504 45,000  Level Jacksonville Center
Thu 09:52:55 AM 33.7328 -79.2167 219° Southwest 438 504 45,000  Level Jacksonville Center
Thu 09:53:55 AM 33.6536 -79.2897 218° Southwest 418 481 45,000  Level Jacksonville Center
Thu 09:54:55 AM 33.5600 -79.3808 219° Southwest 423 487 45,000  Level Jacksonville Center
Thu 09:55:55 AM 33.4667 -79.4717 219° Southwest 428 493 45,000  Level Jacksonville Center
Thu 09:56:55 AM 33.3731 -79.5597 218° Southwest 433 498 45,000  Level Jacksonville Center
Thu 09:57:55 AM 33.2792 -79.6478 218° Southwest 433 498 45,000  Level Jacksonville Center
Thu 09:58:55 AM 33.1856 -79.7381 219° Southwest 433 498 45,000  Level Jacksonville Center
Thu 09:59:55 AM 33.0794 -79.8336 217° Southwest 433 498 45,000  Level Jacksonville Center
Thu 10:00:55 AM 32.9833 -79.9258 219° Southwest 433 498 45,000  Level Jacksonville Center
Thu 10:01:55 AM 32.8853 -80.0133 217° Southwest 433 498 45,000  Level Jacksonville Center
Thu 10:02:55 AM 32.7894 -80.1078 220° Southwest 438 504 45,000  Level Jacksonville Center
Thu 10:03:55 AM 32.6972 -80.1944 218° Southwest 438 504 45,000  Level Jacksonville Center
Thu 10:04:55 AM 32.6031 -80.2861 219° Southwest 443 510 45,000  Level Jacksonville Center
Thu 10:05:55 AM 32.5069 -80.3750 218° Southwest 443 510 45,000  Level Jacksonville Center
Thu 10:06:55 AM 32.4106 -80.4639 218° Southwest 443 510 45,000  Level Jacksonville Center
Thu 10:07:55 AM 32.3161 -80.5500 218° Southwest 439 505 45,000  Level Jacksonville Center
Thu 10:08:55 AM 32.2194 -80.6383 218° Southwest 446 513 45,000  Level Jacksonville Center
Thu 10:09:55 AM 32.1353 -80.7189 219° Southwest 445 512 45,000  Level Jacksonville Center
Thu 10:10:55 AM 32.0386 -80.8069 218° Southwest 440 506 45,000  Level Jacksonville Center
Thu 10:11:55 AM 31.9317 -80.9047 218° Southwest 446 513 45,000  Level Jacksonville Center
Thu 10:12:55 AM 31.8453 -80.9825 217° Southwest 446 513 45,000  Level Jacksonville Center
Thu 10:13:55 AM 31.7381 -81.0800 218° Southwest 451 519 45,000  Level Jacksonville Center
Thu 10:14:55 AM 31.6411 -81.1672 217° Southwest 451 519 45,000  Level Jacksonville Center
Thu 10:15:55 AM 31.5544 -81.2469 218° Southwest 451 519 45,000  Level Jacksonville Center
Thu 10:16:55 AM 31.4472 -81.3461 218° Southwest 451 519 45,000  Level Jacksonville Center
Thu 10:17:55 AM 31.3481 -81.4331 217° Southwest 451 519 45,000  Level Jacksonville Center
Thu 10:18:55 AM 31.2531 -81.5194 218° Southwest 457 526 45,000  Level Jacksonville Center
Thu 10:19:55 AM 31.1536 -81.6058 217° Southwest 457 526 45,000  Level Jacksonville Center
Thu 10:20:55 AM 31.0564 -81.6897 216° Southwest 452 520 45,000  Level Jacksonville Center
Thu 10:21:55 AM 30.9611 -81.7758 218° Southwest 452 520 45,000  Level Jacksonville Center
Thu 10:22:55 AM 30.8617 -81.8617 217° Southwest 452 520 45,000  Level Jacksonville Center
Thu 10:23:55 AM 30.7661 -81.9497 218° Southwest 452 520 45,000  Level Jacksonville Center
Thu 10:24:55 AM 30.6667 -82.0375 217° Southwest 452 520 45,000  Level Jacksonville Center
Thu 10:25:55 AM 30.5542 -82.0942 203° Southwest 441 507 45,000  Level Jacksonville Center
Thu 10:26:55 AM 30.4250 -82.1072 185° South 449 517 45,000  Level Jacksonville Center
Thu 10:27:55 AM 30.2933 -82.1181 184° South 472 543 45,000  Level Jacksonville Center
Thu 10:28:55 AM 30.1639 -82.1239 182° South 472 543 45,000  Level Jacksonville Center
Thu 10:29:55 AM 30.0364 -82.0983 170° South 472 543 45,000 -800 Level Jacksonville Center
Thu 10:30:55 AM 29.9028 -82.0731 171° South 472 543 43,400 -2,050 Descending Jacksonville Center
Thu 10:31:55 AM 29.7647 -82.0456 170° South 485 558 40,900 -2,500 Descending Jacksonville Center
Thu 10:32:55 AM 29.6331 -82.0181 170° South 490 564 38,400 -2,500 Descending Jacksonville Center
Thu 10:33:55 AM 29.5056 -81.9953 171° South 483 556 35,900 -1,700 Descending Jacksonville Center
Thu 10:34:55 AM 29.3781 -81.9703 170° South 478 550 35,000 -700 Descending Jacksonville Center
Thu 10:35:55 AM 29.2506 -81.9453 170° South 468 539 34,500 -1,350 Descending Jacksonville Center
Thu 10:36:55 AM 29.1231 -81.9181 169° South 468 539 32,300 -1,700 Descending Jacksonville Center
Thu 10:37:55 AM 28.9872 -81.8933 171° South 474 545 31,100 -1,245 Descending Jacksonville Center
Thu 10:40:27 AM 28.6547 -81.8308 171° South 443 510 27,900 -1,160 Descending Miami Center
Thu 10:41:27 AM 28.5408 -81.8067 169° South 443 510 27,000 -450 Descending Miami Center
Thu 10:42:27 AM 28.4253 -81.7733 166° South 426 490 27,000 -50 Level Miami Center
Thu 10:43:27 AM 28.3178 -81.7403 165° South 435 501 26,900 -750 Descending Miami Center
Thu 10:44:27 AM 28.2083 -81.7097 166° South 432 497 25,500 -1,450 Descending Miami Center
Thu 10:45:27 AM 28.1028 -81.6817 167° South 404 465 24,000 -1,500 Descending Miami Center
Thu 10:46:27 AM 27.9986 -81.6772 178° South 392 451 22,500 -1,600 Descending Miami Center
Thu 10:47:27 AM 27.8867 -81.7169 197° South 371 427 20,800 -1,500 Descending Miami Center
Thu 10:48:27 AM 27.7961 -81.7389 192° South 371 427 19,500 -1,500 Descending Miami Center
Thu 10:49:27 AM 27.6850 -81.7553 187° South 371 427 17,800 -1,250 Descending Miami Center
Thu 10:50:27 AM 27.6036 -81.6933 146° Southeast 343 395 17,000 -750 Descending Miami Center
Thu 10:51:27 AM 27.5256 -81.6572 158° South 338 389 16,300 -1,000 Descending Miami Center
Thu 10:52:27 AM 27.4347 -81.6278 164° South 338 389 15,000 -1,250 Descending Miami Center
Thu 10:53:27 AM 27.3419 -81.5958 163° South 343 395 13,800 -1,250 Descending Miami Center
Thu 10:54:27 AM 27.2553 -81.5667 163° South 336 387 12,500 -1,250 Descending Miami Center
Thu 10:55:27 AM 27.1664 -81.5372 164° South 336 387 11,300 -1,150 Descending Miami Center
Thu 10:56:27 AM 27.0733 -81.5056 163° South 341 392 10,200 -650 Descending Miami Center
Thu 10:57:27 AM 26.9786 -81.4644 159° South 358 412 10,000 -150 Descending Miami Center
Thu 10:58:27 AM 26.8861 -81.4189 156° South 339 390 9,900 -850 Descending Miami Center
Thu 10:59:27 AM 26.8142 -81.3836 156° South 311 358 8,300 -950 Descending Miami Center
Thu 11:00:27 AM 26.7472 -81.3925 187° South 262 302 8,000 -150 Descending Miami Center
Thu 11:01:27 AM 26.6678 -81.3964 183° South 282 325 8,000  Level Miami Center
Thu 11:02:27 AM 26.5819 -81.4000 182° South 293 337 8,000 -100 Level Miami Center
Thu 11:03:27 AM 26.5067 -81.4089 186° South 282 325 7,800 -550 Descending Miami Center
Thu 11:04:27 AM 26.4447 -81.4528 212° Southwest 282 325 6,900 -900 Descending Miami Center
Thu 11:06:00 AM 26.2882 -81.5011 233° Southwest  Level FlightAware Approximate
Thu 11:13:00 AM 26.1500 -81.7667 246° West  Level FlightAware Approximate
Thu 11:14:00 AM 26.1524 -81.7756 246° West  Level Estimated
Thu 11:15:00 AM 26.1524 -81.7756 246° West  Level Estimated
Thu 11:16:00 AM 26.1524 -81.7756 246° West  Level Estimated
Thu 11:17:00 AM 26.1524 -81.7756 246° West  Level Estimated
Thu 11:18:00 AM 26.1524 -81.7756 246° West  Level Estimated
Thu 11:19:00 AM 26.1524 -81.7756 246° West  Level Estimated
Thu 11:20:00 AM 26.1524 -81.7756 246° West  Level Estimated

Login

Don't have an account? Register now (free) for customized features, flight alerts, and more!